sensor_id;sensor_type;location;lat;lon;timestamp;P1;durP1;ratioP1;P2;durP2;ratioP2
71600;SDS011;59446;52.192;4.628;2023-02-28T00:00:29;0.97;;;0.53;;
71600;SDS011;59446;52.192;4.628;2023-02-28T00:02:55;1.95;;;0.60;;
71600;SDS011;59446;52.192;4.628;2023-02-28T00:05:21;1.33;;;0.80;;
71600;SDS011;59446;52.192;4.628;2023-02-28T00:07:49;3.33;;;0.70;;
71600;SDS011;59446;52.192;4.628;2023-02-28T00:10:19;0.50;;;0.50;;
71600;SDS011;59446;52.192;4.628;2023-02-28T00:12:52;0.50;;;0.50;;
71600;SDS011;59446;52.192;4.628;2023-02-28T00:15:19;0.57;;;0.55;;
71600;SDS011;59446;52.192;4.628;2023-02-28T00:17:45;0.40;;;0.40;;
71600;SDS011;59446;52.192;4.628;2023-02-28T00:20:11;0.73;;;0.50;;
71600;SDS011;59446;52.192;4.628;2023-02-28T00:22:39;1.23;;;0.80;;
71600;SDS011;59446;52.192;4.628;2023-02-28T00:25:07;0.65;;;0.52;;
71600;SDS011;59446;52.192;4.628;2023-02-28T00:27:35;1.52;;;0.70;;
71600;SDS011;59446;52.192;4.628;2023-02-28T00:30:03;0.43;;;0.40;;
71600;SDS011;59446;52.192;4.628;2023-02-28T00:32:29;0.60;;;0.60;;
71600;SDS011;59446;52.192;4.628;2023-02-28T00:34:55;0.60;;;0.50;;
71600;SDS011;59446;52.192;4.628;2023-02-28T00:37:20;0.73;;;0.50;;
71600;SDS011;59446;52.192;4.628;2023-02-28T00:39:46;1.07;;;0.50;;
71600;SDS011;59446;52.192;4.628;2023-02-28T00:42:11;0.80;;;0.50;;
71600;SDS011;59446;52.192;4.628;2023-02-28T00:44:36;0.40;;;0.40;;
71600;SDS011;59446;52.192;4.628;2023-02-28T00:47:02;0.57;;;0.50;;
71600;SDS011;59446;52.192;4.628;2023-02-28T00:49:27;0.55;;;0.50;;
71600;SDS011;59446;52.192;4.628;2023-02-28T00:51:53;1.43;;;0.80;;
71600;SDS011;59446;52.192;4.628;2023-02-28T00:54:20;1.92;;;0.77;;
71600;SDS011;59446;52.192;4.628;2023-02-28T00:56:46;0.50;;;0.50;;
71600;SDS011;59446;52.192;4.628;2023-02-28T00:59:12;0.40;;;0.40;;
71600;SDS011;59446;52.192;4.628;2023-02-28T01:01:38;0.70;;;0.50;;
71600;SDS011;59446;52.192;4.628;2023-02-28T01:04:04;0.40;;;0.40;;
71600;SDS011;59446;52.192;4.628;2023-02-28T01:06:29;1.23;;;0.50;;
71600;SDS011;59446;52.192;4.628;2023-02-28T01:08:55;0.47;;;0.45;;
71600;SDS011;59446;52.192;4.628;2023-02-28T01:11:21;0.50;;;0.40;;
71600;SDS011;59446;52.192;4.628;2023-02-28T01:13:46;0.57;;;0.40;;
71600;SDS011;59446;52.192;4.628;2023-02-28T01:16:12;1.02;;;0.57;;
71600;SDS011;59446;52.192;4.628;2023-02-28T01:18:38;0.77;;;0.77;;
71600;SDS011;59446;52.192;4.628;2023-02-28T01:21:08;0.57;;;0.50;;
71600;SDS011;59446;52.192;4.628;2023-02-28T01:23:39;0.97;;;0.73;;
71600;SDS011;59446;52.192;4.628;2023-02-28T01:26:06;0.50;;;0.50;;
71600;SDS011;59446;52.192;4.628;2023-02-28T01:28:32;0.50;;;0.40;;
71600;SDS011;59446;52.192;4.628;2023-02-28T01:30:58;0.50;;;0.50;;
71600;SDS011;59446;52.192;4.628;2023-02-28T01:33:23;0.67;;;0.50;;
71600;SDS011;59446;52.192;4.628;2023-02-28T01:35:49;0.50;;;0.50;;
71600;SDS011;59446;52.192;4.628;2023-02-28T01:38:14;0.40;;;0.40;;
71600;SDS011;59446;52.192;4.628;2023-02-28T01:40:40;0.47;;;0.47;;
71600;SDS011;59446;52.192;4.628;2023-02-28T01:43:51;0.40;;;0.40;;
71600;SDS011;59446;52.192;4.628;2023-02-28T01:46:17;0.50;;;0.50;;
71600;SDS011;59446;52.192;4.628;2023-02-28T01:48:44;0.50;;;0.50;;
71600;SDS011;59446;52.192;4.628;2023-02-28T01:51:12;0.50;;;0.50;;
71600;SDS011;59446;52.192;4.628;2023-02-28T01:53:52;0.32;;;0.32;;
71600;SDS011;59446;52.192;4.628;2023-02-28T01:56:21;0.40;;;0.40;;
71600;SDS011;59446;52.192;4.628;2023-02-28T01:58:50;0.83;;;0.57;;
71600;SDS011;59446;52.192;4.628;2023-02-28T02:01:18;0.80;;;0.60;;
71600;SDS011;59446;52.192;4.628;2023-02-28T02:03:55;0.40;;;0.40;;
71600;SDS011;59446;52.192;4.628;2023-02-28T02:06:28;0.97;;;0.47;;
71600;SDS011;59446;52.192;4.628;2023-02-28T02:09:00;1.85;;;0.60;;
71600;SDS011;59446;52.192;4.628;2023-02-28T02:11:26;0.40;;;0.40;;
71600;SDS011;59446;52.192;4.628;2023-02-28T02:16:41;0.50;;;0.50;;
71600;SDS011;59446;52.192;4.628;2023-02-28T02:22:27;0.50;;;0.40;;
71600;SDS011;59446;52.192;4.628;2023-02-28T02:25:32;0.40;;;0.40;;
71600;SDS011;59446;52.192;4.628;2023-02-28T02:30:59;0.38;;;0.38;;
71600;SDS011;59446;52.192;4.628;2023-02-28T02:36:37;0.82;;;0.40;;
71600;SDS011;59446;52.192;4.628;2023-02-28T02:39:59;0.50;;;0.50;;
71600;SDS011;59446;52.192;4.628;2023-02-28T02:42:18;0.30;;;0.30;;
71600;SDS011;59446;52.192;4.628;2023-02-28T02:45:13;0.40;;;0.40;;
71600;SDS011;59446;52.192;4.628;2023-02-28T02:47:55;0.43;;;0.40;;
71600;SDS011;59446;52.192;4.628;2023-02-28T02:50:25;0.40;;;0.40;;
71600;SDS011;59446;52.192;4.628;2023-02-28T02:52:56;1.08;;;0.47;;
71600;SDS011;59446;52.192;4.628;2023-02-28T02:55:25;0.90;;;0.57;;
71600;SDS011;59446;52.192;4.628;2023-02-28T02:57:58;0.40;;;0.40;;
71600;SDS011;59446;52.192;4.628;2023-02-28T03:00:32;1.08;;;0.70;;
71600;SDS011;59446;52.192;4.628;2023-02-28T03:03:02;0.30;;;0.30;;
71600;SDS011;59446;52.192;4.628;2023-02-28T03:05:45;0.50;;;0.40;;
71600;SDS011;59446;52.192;4.628;2023-02-28T03:08:13;0.73;;;0.55;;
71600;SDS011;59446;52.192;4.628;2023-02-28T03:10:40;1.37;;;0.50;;
71600;SDS011;59446;52.192;4.628;2023-02-28T03:18:40;0.40;;;0.40;;
71600;SDS011;59446;52.192;4.628;2023-02-28T03:21:21;0.60;;;0.50;;
71600;SDS011;59446;52.192;4.628;2023-02-28T03:26:29;0.52;;;0.52;;
71600;SDS011;59446;52.192;4.628;2023-02-28T03:31:47;0.45;;;0.45;;
71600;SDS011;59446;52.192;4.628;2023-02-28T03:34:19;1.92;;;0.50;;
71600;SDS011;59446;52.192;4.628;2023-02-28T03:37:07;0.87;;;0.60;;
71600;SDS011;59446;52.192;4.628;2023-02-28T03:39:41;0.52;;;0.50;;
71600;SDS011;59446;52.192;4.628;2023-02-28T03:42:15;0.65;;;0.52;;
71600;SDS011;59446;52.192;4.628;2023-02-28T03:44:50;2.08;;;0.80;;
71600;SDS011;59446;52.192;4.628;2023-02-28T03:50:17;0.80;;;0.60;;
71600;SDS011;59446;52.192;4.628;2023-02-28T03:52:50;0.77;;;0.60;;
71600;SDS011;59446;52.192;4.628;2023-02-28T03:55:26;0.87;;;0.40;;
71600;SDS011;59446;52.192;4.628;2023-02-28T03:57:58;0.80;;;0.70;;
71600;SDS011;59446;52.192;4.628;2023-02-28T04:00:31;3.05;;;0.70;;
71600;SDS011;59446;52.192;4.628;2023-02-28T04:03:01;0.47;;;0.40;;
71600;SDS011;59446;52.192;4.628;2023-02-28T04:05:28;1.05;;;0.50;;
71600;SDS011;59446;52.192;4.628;2023-02-28T04:07:54;0.40;;;0.40;;
71600;SDS011;59446;52.192;4.628;2023-02-28T04:10:28;0.68;;;0.60;;
71600;SDS011;59446;52.192;4.628;2023-02-28T04:12:53;0.40;;;0.40;;
71600;SDS011;59446;52.192;4.628;2023-02-28T04:15:19;0.40;;;0.40;;
71600;SDS011;59446;52.192;4.628;2023-02-28T04:17:47;1.47;;;0.60;;
71600;SDS011;59446;52.192;4.628;2023-02-28T04:20:13;0.57;;;0.52;;
71600;SDS011;59446;52.192;4.628;2023-02-28T04:22:38;0.40;;;0.40;;
71600;SDS011;59446;52.192;4.628;2023-02-28T04:25:04;0.83;;;0.50;;
71600;SDS011;59446;52.192;4.628;2023-02-28T04:27:30;0.80;;;0.60;;
71600;SDS011;59446;52.192;4.628;2023-02-28T04:29:56;0.40;;;0.40;;
71600;SDS011;59446;52.192;4.628;2023-02-28T04:32:21;0.63;;;0.40;;
71600;SDS011;59446;52.192;4.628;2023-02-28T04:34:46;0.73;;;0.43;;
71600;SDS011;59446;52.192;4.628;2023-02-28T04:37:12;0.40;;;0.40;;
71600;SDS011;59446;52.192;4.628;2023-02-28T04:39:37;0.40;;;0.40;;
71600;SDS011;59446;52.192;4.628;2023-02-28T04:42:03;0.40;;;0.40;;
71600;SDS011;59446;52.192;4.628;2023-02-28T04:44:29;0.88;;;0.50;;
71600;SDS011;59446;52.192;4.628;2023-02-28T04:46:54;0.40;;;0.40;;
71600;SDS011;59446;52.192;4.628;2023-02-28T04:49:19;0.73;;;0.50;;
71600;SDS011;59446;52.192;4.628;2023-02-28T04:51:45;0.60;;;0.60;;
71600;SDS011;59446;52.192;4.628;2023-02-28T04:54:10;0.60;;;0.53;;
71600;SDS011;59446;52.192;4.628;2023-02-28T04:56:36;0.57;;;0.57;;
71600;SDS011;59446;52.192;4.628;2023-02-28T04:59:01;0.73;;;0.67;;
71600;SDS011;59446;52.192;4.628;2023-02-28T05:01:28;0.43;;;0.43;;
71600;SDS011;59446;52.192;4.628;2023-02-28T05:03:55;0.82;;;0.47;;
71600;SDS011;59446;52.192;4.628;2023-02-28T05:06:23;0.60;;;0.60;;
71600;SDS011;59446;52.192;4.628;2023-02-28T05:08:49;0.45;;;0.40;;
71600;SDS011;59446;52.192;4.628;2023-02-28T05:13:45;0.40;;;0.40;;
71600;SDS011;59446;52.192;4.628;2023-02-28T05:16:12;0.70;;;0.60;;
71600;SDS011;59446;52.192;4.628;2023-02-28T05:18:38;0.50;;;0.50;;
71600;SDS011;59446;52.192;4.628;2023-02-28T05:21:04;0.73;;;0.50;;
71600;SDS011;59446;52.192;4.628;2023-02-28T05:23:30;0.40;;;0.40;;
71600;SDS011;59446;52.192;4.628;2023-02-28T05:25:55;0.40;;;0.40;;
71600;SDS011;59446;52.192;4.628;2023-02-28T05:28:21;1.10;;;0.60;;
71600;SDS011;59446;52.192;4.628;2023-02-28T05:30:46;2.00;;;0.70;;
71600;SDS011;59446;52.192;4.628;2023-02-28T05:33:12;0.50;;;0.50;;
71600;SDS011;59446;52.192;4.628;2023-02-28T05:35:41;0.40;;;0.40;;
71600;SDS011;59446;52.192;4.628;2023-02-28T05:38:10;0.43;;;0.43;;
71600;SDS011;59446;52.192;4.628;2023-02-28T05:40:37;0.50;;;0.40;;
71600;SDS011;59446;52.192;4.628;2023-02-28T05:43:03;0.40;;;0.40;;
71600;SDS011;59446;52.192;4.628;2023-02-28T05:45:28;0.57;;;0.43;;
71600;SDS011;59446;52.192;4.628;2023-02-28T05:47:54;0.70;;;0.50;;
71600;SDS011;59446;52.192;4.628;2023-02-28T05:50:20;0.55;;;0.50;;
71600;SDS011;59446;52.192;4.628;2023-02-28T05:52:49;0.50;;;0.50;;
71600;SDS011;59446;52.192;4.628;2023-02-28T05:55:15;0.40;;;0.40;;
71600;SDS011;59446;52.192;4.628;2023-02-28T05:57:40;0.40;;;0.40;;
71600;SDS011;59446;52.192;4.628;2023-02-28T06:00:06;0.60;;;0.53;;
71600;SDS011;59446;52.192;4.628;2023-02-28T06:02:32;0.60;;;0.60;;
71600;SDS011;59446;52.192;4.628;2023-02-28T06:04:57;0.80;;;0.77;;
71600;SDS011;59446;52.192;4.628;2023-02-28T06:07:22;0.50;;;0.50;;
71600;SDS011;59446;52.192;4.628;2023-02-28T06:09:48;0.40;;;0.40;;
71600;SDS011;59446;52.192;4.628;2023-02-28T06:12:13;0.77;;;0.50;;
71600;SDS011;59446;52.192;4.628;2023-02-28T06:14:38;0.30;;;0.30;;
71600;SDS011;59446;52.192;4.628;2023-02-28T06:17:04;0.40;;;0.40;;
71600;SDS011;59446;52.192;4.628;2023-02-28T06:19:30;0.70;;;0.60;;
71600;SDS011;59446;52.192;4.628;2023-02-28T06:21:56;0.50;;;0.50;;
71600;SDS011;59446;52.192;4.628;2023-02-28T06:24:22;0.40;;;0.40;;
71600;SDS011;59446;52.192;4.628;2023-02-28T06:26:49;0.43;;;0.43;;
71600;SDS011;59446;52.192;4.628;2023-02-28T06:29:15;0.50;;;0.50;;
71600;SDS011;59446;52.192;4.628;2023-02-28T06:31:44;0.45;;;0.45;;
71600;SDS011;59446;52.192;4.628;2023-02-28T06:34:11;0.73;;;0.60;;
71600;SDS011;59446;52.192;4.628;2023-02-28T06:36:40;0.60;;;0.60;;
71600;SDS011;59446;52.192;4.628;2023-02-28T06:39:06;0.35;;;0.35;;
71600;SDS011;59446;52.192;4.628;2023-02-28T06:41:32;0.90;;;0.75;;
71600;SDS011;59446;52.192;4.628;2023-02-28T06:44:03;0.97;;;0.63;;
71600;SDS011;59446;52.192;4.628;2023-02-28T06:46:30;0.60;;;0.60;;
71600;SDS011;59446;52.192;4.628;2023-02-28T06:48:57;0.85;;;0.65;;
71600;SDS011;59446;52.192;4.628;2023-02-28T06:51:22;0.70;;;0.53;;
71600;SDS011;59446;52.192;4.628;2023-02-28T06:53:49;0.40;;;0.40;;
71600;SDS011;59446;52.192;4.628;2023-02-28T06:56:15;0.50;;;0.50;;
71600;SDS011;59446;52.192;4.628;2023-02-28T06:58:41;0.50;;;0.50;;
71600;SDS011;59446;52.192;4.628;2023-02-28T07:01:07;0.53;;;0.50;;
71600;SDS011;59446;52.192;4.628;2023-02-28T07:03:34;0.50;;;0.50;;
71600;SDS011;59446;52.192;4.628;2023-02-28T07:06:00;1.50;;;0.50;;
71600;SDS011;59446;52.192;4.628;2023-02-28T07:08:26;0.57;;;0.57;;
71600;SDS011;59446;52.192;4.628;2023-02-28T07:10:55;0.60;;;0.60;;
71600;SDS011;59446;52.192;4.628;2023-02-28T07:13:21;0.40;;;0.40;;
71600;SDS011;59446;52.192;4.628;2023-02-28T07:15:56;0.43;;;0.43;;
71600;SDS011;59446;52.192;4.628;2023-02-28T07:18:23;0.55;;;0.40;;
71600;SDS011;59446;52.192;4.628;2023-02-28T07:20:49;0.70;;;0.50;;
71600;SDS011;59446;52.192;4.628;2023-02-28T07:23:14;0.50;;;0.50;;
71600;SDS011;59446;52.192;4.628;2023-02-28T07:25:40;1.53;;;0.70;;
71600;SDS011;59446;52.192;4.628;2023-02-28T07:28:05;0.50;;;0.50;;
71600;SDS011;59446;52.192;4.628;2023-02-28T07:30:31;0.73;;;0.65;;
71600;SDS011;59446;52.192;4.628;2023-02-28T07:32:56;0.50;;;0.50;;
71600;SDS011;59446;52.192;4.628;2023-02-28T07:35:22;0.73;;;0.70;;
71600;SDS011;59446;52.192;4.628;2023-02-28T07:37:47;0.43;;;0.40;;
71600;SDS011;59446;52.192;4.628;2023-02-28T07:40:12;0.80;;;0.70;;
71600;SDS011;59446;52.192;4.628;2023-02-28T07:42:39;0.70;;;0.53;;
71600;SDS011;59446;52.192;4.628;2023-02-28T07:45:06;0.60;;;0.52;;
71600;SDS011;59446;52.192;4.628;2023-02-28T07:47:32;0.70;;;0.60;;
71600;SDS011;59446;52.192;4.628;2023-02-28T07:49:57;0.40;;;0.40;;
71600;SDS011;59446;52.192;4.628;2023-02-28T07:52:23;0.50;;;0.50;;
71600;SDS011;59446;52.192;4.628;2023-02-28T07:54:49;0.52;;;0.52;;
71600;SDS011;59446;52.192;4.628;2023-02-28T07:57:15;0.70;;;0.70;;
71600;SDS011;59446;52.192;4.628;2023-02-28T07:59:41;1.10;;;1.00;;
71600;SDS011;59446;52.192;4.628;2023-02-28T08:02:08;0.60;;;0.60;;
71600;SDS011;59446;52.192;4.628;2023-02-28T08:04:37;0.50;;;0.50;;
71600;SDS011;59446;52.192;4.628;2023-02-28T08:07:02;0.57;;;0.57;;
71600;SDS011;59446;52.192;4.628;2023-02-28T08:09:28;0.47;;;0.47;;
71600;SDS011;59446;52.192;4.628;2023-02-28T08:11:54;0.70;;;0.60;;
71600;SDS011;59446;52.192;4.628;2023-02-28T08:14:20;0.47;;;0.47;;
71600;SDS011;59446;52.192;4.628;2023-02-28T08:16:45;0.73;;;0.70;;
71600;SDS011;59446;52.192;4.628;2023-02-28T08:19:10;0.50;;;0.50;;
71600;SDS011;59446;52.192;4.628;2023-02-28T08:21:36;0.47;;;0.47;;
71600;SDS011;59446;52.192;4.628;2023-02-28T08:24:01;0.40;;;0.40;;
71600;SDS011;59446;52.192;4.628;2023-02-28T08:26:26;1.23;;;0.63;;
71600;SDS011;59446;52.192;4.628;2023-02-28T08:28:52;0.87;;;0.67;;
71600;SDS011;59446;52.192;4.628;2023-02-28T08:31:17;0.43;;;0.43;;
71600;SDS011;59446;52.192;4.628;2023-02-28T08:33:43;0.60;;;0.50;;
71600;SDS011;59446;52.192;4.628;2023-02-28T08:36:10;0.80;;;0.50;;
71600;SDS011;59446;52.192;4.628;2023-02-28T08:38:36;1.95;;;0.60;;
71600;SDS011;59446;52.192;4.628;2023-02-28T08:41:04;0.40;;;0.40;;
71600;SDS011;59446;52.192;4.628;2023-02-28T08:43:32;0.40;;;0.40;;
71600;SDS011;59446;52.192;4.628;2023-02-28T08:45:58;6.68;;;1.00;;
71600;SDS011;59446;52.192;4.628;2023-02-28T08:48:24;0.40;;;0.40;;
71600;SDS011;59446;52.192;4.628;2023-02-28T08:53:00;0.93;;;0.70;;
71600;SDS011;59446;52.192;4.628;2023-02-28T08:55:25;1.40;;;0.70;;
71600;SDS011;59446;52.192;4.628;2023-02-28T08:57:51;0.83;;;0.40;;
71600;SDS011;59446;52.192;4.628;2023-02-28T09:00:17;1.23;;;0.60;;
71600;SDS011;59446;52.192;4.628;2023-02-28T09:02:43;0.93;;;0.50;;
71600;SDS011;59446;52.192;4.628;2023-02-28T09:05:08;0.50;;;0.50;;
71600;SDS011;59446;52.192;4.628;2023-02-28T09:07:34;0.70;;;0.67;;
71600;SDS011;59446;52.192;4.628;2023-02-28T09:09:59;11.63;;;0.90;;
71600;SDS011;59446;52.192;4.628;2023-02-28T09:12:26;2.57;;;0.93;;
71600;SDS011;59446;52.192;4.628;2023-02-28T09:14:52;5.75;;;1.05;;
71600;SDS011;59446;52.192;4.628;2023-02-28T09:17:18;1.10;;;0.70;;
71600;SDS011;59446;52.192;4.628;2023-02-28T09:19:44;0.73;;;0.60;;
71600;SDS011;59446;52.192;4.628;2023-02-28T09:22:12;0.50;;;0.50;;
71600;SDS011;59446;52.192;4.628;2023-02-28T09:24:37;0.83;;;0.50;;
71600;SDS011;59446;52.192;4.628;2023-02-28T09:27:03;1.13;;;0.80;;
71600;SDS011;59446;52.192;4.628;2023-02-28T09:29:29;0.57;;;0.57;;
71600;SDS011;59446;52.192;4.628;2023-02-28T09:31:55;0.52;;;0.50;;
71600;SDS011;59446;52.192;4.628;2023-02-28T09:34:23;1.52;;;0.60;;
71600;SDS011;59446;52.192;4.628;2023-02-28T09:36:49;1.17;;;0.80;;
71600;SDS011;59446;52.192;4.628;2023-02-28T09:39:19;2.00;;;1.10;;
71600;SDS011;59446;52.192;4.628;2023-02-28T09:41:47;0.93;;;0.63;;
71600;SDS011;59446;52.192;4.628;2023-02-28T09:44:32;3.28;;;1.30;;
71600;SDS011;59446;52.192;4.628;2023-02-28T09:47:05;0.80;;;0.70;;
71600;SDS011;59446;52.192;4.628;2023-02-28T09:49:39;1.05;;;0.50;;
71600;SDS011;59446;52.192;4.628;2023-02-28T09:52:18;0.73;;;0.50;;
71600;SDS011;59446;52.192;4.628;2023-02-28T09:54:54;0.77;;;0.60;;
71600;SDS011;59446;52.192;4.628;2023-02-28T10:00:37;1.60;;;0.67;;
71600;SDS011;59446;52.192;4.628;2023-02-28T10:02:53;2.42;;;0.57;;
71600;SDS011;59446;52.192;4.628;2023-02-28T10:05:43;0.45;;;0.45;;
71600;SDS011;59446;52.192;4.628;2023-02-28T10:08:38;0.98;;;0.68;;
71600;SDS011;59446;52.192;4.628;2023-02-28T10:11:10;4.60;;;1.10;;
71600;SDS011;59446;52.192;4.628;2023-02-28T10:13:53;0.57;;;0.45;;
71600;SDS011;59446;52.192;4.628;2023-02-28T10:22:27;0.77;;;0.50;;
71600;SDS011;59446;52.192;4.628;2023-02-28T10:24:59;1.27;;;0.70;;
71600;SDS011;59446;52.192;4.628;2023-02-28T10:27:31;0.67;;;0.67;;
71600;SDS011;59446;52.192;4.628;2023-02-28T10:30:01;1.58;;;0.88;;
71600;SDS011;59446;52.192;4.628;2023-02-28T10:32:29;0.75;;;0.65;;
71600;SDS011;59446;52.192;4.628;2023-02-28T10:35:10;0.77;;;0.60;;
71600;SDS011;59446;52.192;4.628;2023-02-28T10:37:41;1.03;;;0.80;;
71600;SDS011;59446;52.192;4.628;2023-02-28T10:42:58;0.90;;;0.70;;
71600;SDS011;59446;52.192;4.628;2023-02-28T10:45:31;1.00;;;0.80;;
71600;SDS011;59446;52.192;4.628;2023-02-28T10:48:04;3.75;;;0.90;;
71600;SDS011;59446;52.192;4.628;2023-02-28T10:50:51;1.40;;;0.80;;
71600;SDS011;59446;52.192;4.628;2023-02-28T10:56:04;2.08;;;0.77;;
71600;SDS011;59446;52.192;4.628;2023-02-28T11:01:18;1.35;;;0.90;;
71600;SDS011;59446;52.192;4.628;2023-02-28T11:07:05;1.63;;;0.80;;
71600;SDS011;59446;52.192;4.628;2023-02-28T11:09:54;0.70;;;0.70;;
71600;SDS011;59446;52.192;4.628;2023-02-28T11:12:22;1.43;;;0.90;;
71600;SDS011;59446;52.192;4.628;2023-02-28T11:14:59;1.25;;;0.70;;
71600;SDS011;59446;52.192;4.628;2023-02-28T11:17:30;1.52;;;0.70;;
71600;SDS011;59446;52.192;4.628;2023-02-28T11:19:58;0.97;;;0.70;;
71600;SDS011;59446;52.192;4.628;2023-02-28T11:22:32;0.85;;;0.70;;
71600;SDS011;59446;52.192;4.628;2023-02-28T11:25:06;4.95;;;0.88;;
71600;SDS011;59446;52.192;4.628;2023-02-28T11:31:00;0.80;;;0.50;;
71600;SDS011;59446;52.192;4.628;2023-02-28T11:33:40;0.75;;;0.60;;
71600;SDS011;59446;52.192;4.628;2023-02-28T11:36:26;0.70;;;0.50;;
71600;SDS011;59446;52.192;4.628;2023-02-28T11:39:00;3.10;;;0.70;;
71600;SDS011;59446;52.192;4.628;2023-02-28T11:44:05;0.80;;;0.50;;
71600;SDS011;59446;52.192;4.628;2023-02-28T11:47:15;1.20;;;0.60;;
71600;SDS011;59446;52.192;4.628;2023-02-28T11:50:27;1.88;;;0.60;;
71600;SDS011;59446;52.192;4.628;2023-02-28T11:56:15;1.52;;;0.73;;
71600;SDS011;59446;52.192;4.628;2023-02-28T11:59:03;0.50;;;0.50;;
71600;SDS011;59446;52.192;4.628;2023-02-28T12:02:02;0.90;;;0.70;;
71600;SDS011;59446;52.192;4.628;2023-02-28T12:04:54;0.52;;;0.50;;
71600;SDS011;59446;52.192;4.628;2023-02-28T12:07:48;0.90;;;0.50;;
71600;SDS011;59446;52.192;4.628;2023-02-28T12:10:21;3.13;;;1.00;;
71600;SDS011;59446;52.192;4.628;2023-02-28T12:19:02;2.60;;;0.70;;
71600;SDS011;59446;52.192;4.628;2023-02-28T12:21:38;1.83;;;0.52;;
71600;SDS011;59446;52.192;4.628;2023-02-28T12:24:38;0.93;;;0.60;;
71600;SDS011;59446;52.192;4.628;2023-02-28T12:27:09;1.03;;;0.60;;
71600;SDS011;59446;52.192;4.628;2023-02-28T12:29:49;1.08;;;0.60;;
71600;SDS011;59446;52.192;4.628;2023-02-28T12:32:33;0.57;;;0.50;;
71600;SDS011;59446;52.192;4.628;2023-02-28T12:37:37;1.02;;;0.60;;
71600;SDS011;59446;52.192;4.628;2023-02-28T12:40:12;0.80;;;0.60;;
71600;SDS011;59446;52.192;4.628;2023-02-28T12:42:51;1.87;;;0.80;;
71600;SDS011;59446;52.192;4.628;2023-02-28T12:48:37;0.70;;;0.60;;
71600;SDS011;59446;52.192;4.628;2023-02-28T12:51:07;0.85;;;0.68;;
71600;SDS011;59446;52.192;4.628;2023-02-28T12:59:45;1.23;;;0.60;;
71600;SDS011;59446;52.192;4.628;2023-02-28T13:05:04;1.00;;;0.60;;
71600;SDS011;59446;52.192;4.628;2023-02-28T13:10:48;0.73;;;0.47;;
71600;SDS011;59446;52.192;4.628;2023-02-28T13:13:23;2.80;;;0.50;;
71600;SDS011;59446;52.192;4.628;2023-02-28T13:18:42;0.73;;;0.50;;
71600;SDS011;59446;52.192;4.628;2023-02-28T13:21:10;1.10;;;0.60;;
71600;SDS011;59446;52.192;4.628;2023-02-28T13:34:31;0.85;;;0.60;;
71600;SDS011;59446;52.192;4.628;2023-02-28T13:39:51;0.60;;;0.50;;
71600;SDS011;59446;52.192;4.628;2023-02-28T13:42:32;1.30;;;0.73;;
71600;SDS011;59446;52.192;4.628;2023-02-28T13:52:45;2.05;;;0.73;;
71600;SDS011;59446;52.192;4.628;2023-02-28T13:56:01;1.10;;;0.60;;
71600;SDS011;59446;52.192;4.628;2023-02-28T14:07:15;0.70;;;0.50;;
71600;SDS011;59446;52.192;4.628;2023-02-28T14:09:45;0.98;;;0.63;;
71600;SDS011;59446;52.192;4.628;2023-02-28T14:15:39;1.80;;;0.83;;
71600;SDS011;59446;52.192;4.628;2023-02-28T14:20:56;0.65;;;0.55;;
71600;SDS011;59446;52.192;4.628;2023-02-28T14:23:59;0.80;;;0.50;;
71600;SDS011;59446;52.192;4.628;2023-02-28T14:27:03;1.10;;;0.50;;
71600;SDS011;59446;52.192;4.628;2023-02-28T14:37:27;1.10;;;0.77;;
71600;SDS011;59446;52.192;4.628;2023-02-28T14:39:55;0.40;;;0.40;;
71600;SDS011;59446;52.192;4.628;2023-02-28T14:42:28;0.70;;;0.60;;
71600;SDS011;59446;52.192;4.628;2023-02-28T14:44:55;1.50;;;1.07;;
71600;SDS011;59446;52.192;4.628;2023-02-28T14:47:21;1.38;;;0.70;;
71600;SDS011;59446;52.192;4.628;2023-02-28T14:49:50;0.80;;;0.60;;
71600;SDS011;59446;52.192;4.628;2023-02-28T14:52:29;0.67;;;0.50;;
71600;SDS011;59446;52.192;4.628;2023-02-28T14:54:58;1.73;;;0.80;;
71600;SDS011;59446;52.192;4.628;2023-02-28T14:57:27;0.60;;;0.60;;
71600;SDS011;59446;52.192;4.628;2023-02-28T15:02:30;0.70;;;0.60;;
71600;SDS011;59446;52.192;4.628;2023-02-28T15:05:00;0.50;;;0.50;;
71600;SDS011;59446;52.192;4.628;2023-02-28T15:07:44;2.05;;;0.90;;
71600;SDS011;59446;52.192;4.628;2023-02-28T15:10:18;2.80;;;0.97;;
71600;SDS011;59446;52.192;4.628;2023-02-28T15:12:58;0.52;;;0.43;;
71600;SDS011;59446;52.192;4.628;2023-02-28T15:15:35;1.58;;;0.70;;
71600;SDS011;59446;52.192;4.628;2023-02-28T15:18:07;0.93;;;0.60;;
71600;SDS011;59446;52.192;4.628;2023-02-28T15:21:02;1.65;;;0.63;;
71600;SDS011;59446;52.192;4.628;2023-02-28T15:23:31;0.80;;;0.70;;
71600;SDS011;59446;52.192;4.628;2023-02-28T15:25:59;0.60;;;0.60;;
71600;SDS011;59446;52.192;4.628;2023-02-28T15:28:25;0.90;;;0.63;;
71600;SDS011;59446;52.192;4.628;2023-02-28T15:30:51;0.70;;;0.70;;
71600;SDS011;59446;52.192;4.628;2023-02-28T15:33:23;0.80;;;0.60;;
71600;SDS011;59446;52.192;4.628;2023-02-28T15:36:03;0.85;;;0.50;;
71600;SDS011;59446;52.192;4.628;2023-02-28T15:38:32;1.50;;;0.63;;
71600;SDS011;59446;52.192;4.628;2023-02-28T15:40:59;0.73;;;0.50;;
71600;SDS011;59446;52.192;4.628;2023-02-28T15:43:29;0.50;;;0.50;;
71600;SDS011;59446;52.192;4.628;2023-02-28T15:48:27;1.15;;;0.52;;
71600;SDS011;59446;52.192;4.628;2023-02-28T15:51:01;0.63;;;0.57;;
71600;SDS011;59446;52.192;4.628;2023-02-28T15:53:31;1.77;;;0.60;;
71600;SDS011;59446;52.192;4.628;2023-02-28T15:56:01;1.10;;;0.55;;
71600;SDS011;59446;52.192;4.628;2023-02-28T15:58:37;0.40;;;0.40;;
71600;SDS011;59446;52.192;4.628;2023-02-28T16:01:15;0.57;;;0.55;;
71600;SDS011;59446;52.192;4.628;2023-02-28T16:03:45;1.52;;;0.60;;
71600;SDS011;59446;52.192;4.628;2023-02-28T16:08:49;0.93;;;0.63;;
71600;SDS011;59446;52.192;4.628;2023-02-28T16:11:16;1.02;;;0.60;;
71600;SDS011;59446;52.192;4.628;2023-02-28T16:13:42;0.65;;;0.60;;
71600;SDS011;59446;52.192;4.628;2023-02-28T16:16:07;0.77;;;0.60;;
71600;SDS011;59446;52.192;4.628;2023-02-28T16:18:33;0.40;;;0.40;;
71600;SDS011;59446;52.192;4.628;2023-02-28T16:20:58;1.13;;;0.60;;
71600;SDS011;59446;52.192;4.628;2023-02-28T16:23:24;0.67;;;0.57;;
71600;SDS011;59446;52.192;4.628;2023-02-28T16:25:49;1.10;;;0.60;;
71600;SDS011;59446;52.192;4.628;2023-02-28T16:28:19;0.77;;;0.60;;
71600;SDS011;59446;52.192;4.628;2023-02-28T16:30:50;0.93;;;0.50;;
71600;SDS011;59446;52.192;4.628;2023-02-28T16:33:17;0.50;;;0.40;;
71600;SDS011;59446;52.192;4.628;2023-02-28T16:35:43;1.37;;;0.60;;
71600;SDS011;59446;52.192;4.628;2023-02-28T16:38:09;2.50;;;0.60;;
71600;SDS011;59446;52.192;4.628;2023-02-28T16:40:35;1.02;;;0.70;;
71600;SDS011;59446;52.192;4.628;2023-02-28T16:43:01;1.50;;;0.80;;
71600;SDS011;59446;52.192;4.628;2023-02-28T16:45:40;0.93;;;0.60;;
71600;SDS011;59446;52.192;4.628;2023-02-28T16:48:07;1.10;;;0.70;;
71600;SDS011;59446;52.192;4.628;2023-02-28T16:50:37;1.55;;;0.70;;
71600;SDS011;59446;52.192;4.628;2023-02-28T16:53:03;5.60;;;1.48;;
71600;SDS011;59446;52.192;4.628;2023-02-28T16:55:29;3.27;;;1.27;;
71600;SDS011;59446;52.192;4.628;2023-02-28T16:57:59;5.73;;;1.57;;
71600;SDS011;59446;52.192;4.628;2023-02-28T17:00:26;10.13;;;2.83;;
71600;SDS011;59446;52.192;4.628;2023-02-28T17:02:53;10.95;;;2.70;;
71600;SDS011;59446;52.192;4.628;2023-02-28T17:05:19;10.13;;;2.67;;
71600;SDS011;59446;52.192;4.628;2023-02-28T17:07:46;8.98;;;2.88;;
71600;SDS011;59446;52.192;4.628;2023-02-28T17:10:13;9.00;;;3.08;;
71600;SDS011;59446;52.192;4.628;2023-02-28T17:12:43;7.30;;;2.23;;
71600;SDS011;59446;52.192;4.628;2023-02-28T17:15:10;6.72;;;2.55;;
71600;SDS011;59446;52.192;4.628;2023-02-28T17:17:37;9.27;;;3.97;;
71600;SDS011;59446;52.192;4.628;2023-02-28T17:20:03;7.50;;;2.50;;
71600;SDS011;59446;52.192;4.628;2023-02-28T17:22:29;6.55;;;3.15;;
71600;SDS011;59446;52.192;4.628;2023-02-28T17:24:55;8.30;;;2.47;;